createdAt,value
2023-05-23T00:01:45.623Z,99.50
2023-05-23T00:04:17.302Z,98.90
2023-05-23T00:06:47.366Z,99.30
2023-05-23T00:09:16.138Z,99.50
2023-05-23T00:11:45.912Z,99.00
2023-05-23T00:14:16.225Z,99.20
2023-05-23T00:16:45.638Z,99.20
2023-05-23T00:19:16.263Z,99.60
2023-05-23T00:21:48.299Z,99.40
2023-05-23T00:24:19.026Z,99.50
2023-05-23T00:26:47.562Z,99.20
2023-05-23T00:29:18.193Z,99.40
2023-05-23T00:31:47.492Z,99.60
2023-05-23T00:34:17.911Z,99.60
2023-05-23T00:36:48.213Z,99.50
2023-05-23T00:39:20.887Z,99.70
2023-05-23T00:41:52.947Z,99.80
2023-05-23T00:44:48.840Z,99.90
2023-05-23T00:47:17.367Z,99.90
2023-05-23T00:49:46.089Z,99.90
2023-05-23T00:52:16.089Z,99.80
2023-05-23T00:54:44.537Z,99.70
2023-05-23T00:57:13.006Z,99.70
2023-05-23T00:59:41.591Z,99.70
2023-05-23T01:02:12.868Z,99.60
2023-05-23T01:04:43.114Z,99.50
2023-05-23T01:07:12.447Z,99.70
2023-05-23T01:09:40.882Z,99.70
2023-05-23T01:12:22.018Z,99.60
2023-05-23T01:15:08.835Z,99.70
2023-05-23T01:17:48.334Z,99.70
2023-05-23T01:20:22.752Z,99.90
2023-05-23T01:23:48.559Z,99.80
2023-05-23T01:26:36.204Z,99.70
2023-05-23T01:29:16.317Z,99.80
2023-05-23T01:31:47.446Z,99.80
2023-05-23T01:34:17.165Z,99.60
2023-05-23T01:36:46.747Z,99.70
2023-05-23T01:39:15.104Z,99.60
2023-05-23T01:41:43.834Z,99.70
2023-05-23T01:44:13.836Z,99.80
2023-05-23T01:46:44.429Z,99.80
2023-05-23T01:49:15.632Z,99.80
2023-05-23T01:51:44.282Z,99.90
2023-05-23T01:54:17.038Z,99.90
2023-05-23T01:56:46.314Z,99.90
2023-05-23T01:59:16.192Z,99.90
2023-05-23T02:01:45.601Z,99.70
2023-05-23T02:04:15.835Z,99.90
2023-05-23T02:06:44.291Z,99.80
2023-05-23T02:09:14.892Z,99.90
2023-05-23T02:11:43.272Z,99.80
2023-05-23T02:14:12.950Z,99.90
2023-05-23T02:16:42.883Z,99.80
2023-05-23T02:19:11.599Z,99.60
2023-05-23T02:21:40.752Z,99.90
2023-05-23T02:24:09.121Z,99.80
2023-05-23T02:26:37.530Z,99.90
2023-05-23T02:29:06.037Z,99.90
2023-05-23T02:31:34.424Z,99.90
2023-05-23T02:34:04.404Z,99.90
2023-05-23T02:36:33.468Z,99.90
2023-05-23T02:39:02.150Z,99.90
2023-05-23T02:41:31.357Z,99.90
2023-05-23T02:44:00.427Z,99.90
2023-05-23T02:46:29.149Z,99.90
2023-05-23T02:48:57.614Z,99.90
2023-05-23T02:51:27.430Z,99.90
2023-05-23T02:53:55.879Z,99.90
2023-05-23T02:56:24.482Z,99.90
2023-05-23T02:58:53.359Z,99.90
2023-05-23T03:01:21.896Z,99.90
2023-05-23T03:03:50.629Z,99.90
2023-05-23T03:06:19.419Z,99.90
2023-05-23T03:08:49.450Z,99.90
2023-05-23T03:11:18.111Z,99.90
2023-05-23T03:13:46.724Z,99.90
2023-05-23T03:16:15.600Z,99.90
2023-05-23T03:18:44.166Z,99.90
2023-05-23T03:21:12.806Z,99.90
2023-05-23T03:23:41.410Z,99.90
2023-05-23T03:26:12.073Z,99.90
2023-05-23T03:28:40.951Z,99.90
2023-05-23T03:31:09.629Z,99.90
2023-05-23T03:33:40.269Z,99.90
2023-05-23T03:36:09.408Z,99.90
2023-05-23T03:38:37.986Z,99.90
2023-05-23T03:41:06.759Z,99.90
2023-05-23T03:43:36.772Z,99.90
2023-05-23T03:46:05.443Z,99.90
2023-05-23T03:48:34.106Z,99.90
2023-05-23T03:51:03.063Z,99.90
2023-05-23T03:53:32.823Z,99.90
2023-05-23T03:56:02.103Z,99.90
2023-05-23T03:58:31.729Z,99.90
2023-05-23T04:01:06.319Z,99.90
2023-05-23T04:03:35.110Z,99.90
2023-05-23T04:06:05.812Z,99.90
2023-05-23T04:08:35.717Z,99.90
2023-05-23T04:11:04.873Z,99.90
2023-05-23T04:13:37.546Z,99.90
2023-05-23T04:16:08.530Z,99.90
2023-05-23T04:18:39.452Z,99.90
2023-05-23T04:21:09.739Z,99.90
2023-05-23T04:23:44.871Z,99.90
2023-05-23T04:26:13.387Z,99.90
2023-05-23T04:28:48.852Z,99.90
2023-05-23T04:31:19.219Z,99.90
2023-05-23T04:33:47.978Z,99.90
2023-05-23T04:36:18.254Z,99.90
2023-05-23T04:38:51.385Z,99.90
2023-05-23T04:41:23.747Z,99.90
2023-05-23T04:44:12.673Z,99.90
2023-05-23T04:46:47.181Z,99.90
2023-05-23T04:49:22.824Z,99.90
2023-05-23T04:51:51.966Z,99.90
2023-05-23T04:54:24.777Z,99.90
2023-05-23T04:56:54.968Z,99.90
2023-05-23T04:59:24.961Z,99.90
2023-05-23T05:01:54.757Z,99.90
2023-05-23T05:04:23.532Z,99.90
2023-05-23T05:06:52.667Z,99.90
2023-05-23T05:09:22.167Z,99.90
2023-05-23T05:11:51.556Z,99.90
2023-05-23T05:14:21.660Z,99.90
2023-05-23T05:16:50.801Z,99.90
2023-05-23T05:19:21.168Z,99.90
2023-05-23T05:21:49.642Z,99.90
2023-05-23T05:24:21.080Z,99.90
2023-05-23T05:26:50.191Z,99.90
2023-05-23T05:29:18.744Z,99.90
2023-05-23T05:31:47.119Z,99.90
2023-05-23T05:34:15.978Z,99.90
2023-05-23T05:36:48.208Z,99.90
2023-05-23T05:39:18.762Z,99.90
2023-05-23T05:41:47.371Z,99.90
2023-05-23T05:44:18.496Z,99.90
2023-05-23T05:46:48.568Z,99.90
2023-05-23T05:49:17.155Z,99.90
2023-05-23T05:51:49.717Z,99.90
2023-05-23T05:54:19.396Z,99.90
2023-05-23T05:56:48.445Z,99.90
2023-05-23T05:59:17.757Z,99.90
2023-05-23T06:01:46.304Z,99.90
2023-05-23T06:04:15.141Z,99.90
2023-05-23T06:06:44.280Z,99.90
2023-05-23T06:09:14.335Z,99.90
2023-05-23T06:11:42.817Z,99.90
2023-05-23T06:14:11.610Z,99.90
2023-05-23T06:16:44.280Z,99.90
2023-05-23T06:19:13.203Z,99.90
2023-05-23T06:21:42.507Z,99.90
2023-05-23T06:24:14.065Z,99.90
2023-05-23T06:26:43.155Z,99.90
2023-05-23T06:29:11.601Z,99.90
2023-05-23T06:31:40.034Z,99.90
2023-05-23T06:34:08.481Z,99.90
2023-05-23T06:36:36.896Z,99.90
2023-05-23T06:39:05.429Z,99.90
2023-05-23T06:41:36.454Z,99.90
2023-05-23T06:44:04.918Z,99.90
2023-05-23T06:46:33.497Z,99.90
2023-05-23T06:49:14.471Z,99.90
2023-05-23T06:51:44.953Z,99.90
2023-05-23T06:54:13.968Z,99.90
2023-05-23T06:56:44.610Z,99.90
2023-05-23T06:59:13.394Z,99.90
2023-05-23T07:01:42.494Z,99.90
2023-05-23T07:04:12.307Z,99.90
2023-05-23T07:06:41.550Z,99.90
2023-05-23T07:09:12.007Z,99.90
2023-05-23T07:11:43.218Z,99.90
2023-05-23T07:14:12.540Z,99.90
2023-05-23T07:16:43.617Z,99.90
2023-05-23T07:19:14.313Z,99.90
2023-05-23T07:21:52.590Z,99.90
2023-05-23T07:24:22.793Z,99.90
2023-05-23T07:26:53.854Z,99.90
2023-05-23T07:29:22.855Z,99.90
2023-05-23T07:31:55.155Z,99.90
2023-05-23T07:34:24.756Z,99.90
2023-05-23T07:36:57.173Z,99.90
2023-05-23T07:39:28.056Z,99.90
2023-05-23T07:41:59.876Z,99.90
2023-05-23T07:44:29.618Z,99.90
2023-05-23T07:46:58.211Z,99.90
2023-05-23T07:49:27.256Z,99.90
2023-05-23T07:51:56.680Z,99.90
2023-05-23T07:54:25.176Z,99.90
2023-05-23T07:56:58.997Z,99.80
2023-05-23T07:59:28.017Z,99.80
2023-05-23T08:01:56.647Z,99.80
2023-05-23T08:04:27.437Z,99.80
2023-05-23T08:09:33.529Z,99.90
2023-05-23T08:12:03.446Z,99.90
2023-05-23T08:14:42.784Z,99.90
2023-05-23T08:17:25.203Z,99.90
2023-05-23T08:19:54.646Z,99.90
2023-05-23T08:22:23.231Z,99.70
2023-05-23T08:24:51.834Z,99.70
2023-05-23T08:27:21.814Z,99.50
2023-05-23T08:29:55.923Z,99.40
2023-05-23T08:32:24.716Z,99.40
2023-05-23T08:34:53.817Z,99.40
2023-05-23T08:37:22.685Z,99.40
2023-05-23T08:39:52.358Z,99.80
2023-05-23T08:42:45.199Z,99.40
2023-05-23T08:45:16.249Z,99.40
2023-05-23T08:47:46.677Z,99.30
2023-05-23T08:50:21.025Z,99.30
2023-05-23T08:52:56.834Z,99.30
2023-05-23T08:55:27.900Z,99.20
2023-05-23T08:58:00.743Z,99.30
2023-05-23T09:00:39.639Z,99.30
2023-05-23T09:03:08.202Z,99.40
2023-05-23T09:05:52.507Z,99.20
2023-05-23T09:08:22.013Z,99.00
2023-05-23T09:10:53.185Z,98.90
2023-05-23T09:13:24.380Z,99.00
2023-05-23T09:16:02.742Z,98.80
2023-05-23T09:18:40.232Z,99.00
2023-05-23T09:21:10.843Z,99.10
2023-05-23T09:23:45.638Z,99.10
2023-05-23T09:26:14.952Z,99.00
2023-05-23T09:28:47.152Z,98.80
2023-05-23T09:31:16.558Z,98.60
2023-05-23T09:33:48.268Z,98.70
2023-05-23T09:36:19.289Z,98.50
2023-05-23T09:38:49.546Z,98.50
2023-05-23T09:41:21.601Z,98.40
2023-05-23T09:43:56.543Z,98.40
2023-05-23T09:46:29.745Z,97.90
2023-05-23T09:49:00.284Z,98.10
2023-05-23T09:51:28.852Z,98.00
2023-05-23T09:53:58.104Z,98.10
2023-05-23T09:56:28.924Z,98.10
2023-05-23T09:59:01.814Z,98.10
2023-05-23T10:01:33.080Z,98.00
2023-05-23T10:04:02.561Z,97.80
2023-05-23T10:06:40.860Z,97.90
2023-05-23T10:09:16.004Z,98.00
2023-05-23T10:12:40.760Z,97.90
2023-05-23T10:15:11.570Z,98.20
2023-05-23T10:18:05.184Z,98.00
2023-05-23T10:20:35.858Z,97.80
2023-05-23T10:23:05.491Z,97.80
2023-05-23T10:25:35.814Z,97.70
2023-05-23T10:28:05.346Z,97.80
2023-05-23T10:30:36.442Z,97.70
2023-05-23T10:33:06.210Z,97.70
2023-05-23T10:35:48.696Z,97.60
2023-05-23T10:38:31.452Z,97.60
2023-05-23T10:41:10.324Z,97.60
2023-05-23T10:43:46.977Z,98.00
2023-05-23T10:46:17.218Z,97.60
2023-05-23T10:48:46.354Z,97.60
2023-05-23T10:51:16.090Z,97.80
2023-05-23T10:53:46.403Z,98.00
2023-05-23T10:56:23.893Z,97.70
2023-05-23T10:58:56.831Z,97.50
2023-05-23T11:01:28.089Z,97.60
2023-05-23T11:03:56.920Z,97.60
2023-05-23T11:06:34.081Z,97.60
2023-05-23T11:09:08.311Z,97.50
2023-05-23T11:12:02.734Z,97.60
2023-05-23T11:14:55.757Z,97.50
2023-05-23T11:17:35.313Z,97.50
2023-05-23T11:20:08.950Z,97.70
2023-05-23T11:22:39.985Z,97.70
2023-05-23T11:25:10.376Z,97.80
2023-05-23T11:27:41.485Z,97.50
2023-05-23T11:30:14.320Z,97.60
2023-05-23T11:32:52.317Z,97.60
2023-05-23T11:35:21.806Z,97.50
2023-05-23T11:37:50.905Z,97.40
2023-05-23T11:40:31.646Z,97.50
2023-05-23T11:43:00.794Z,97.40
2023-05-23T11:45:30.075Z,97.50
2023-05-23T11:48:00.538Z,97.80
2023-05-23T11:50:29.140Z,97.50
2023-05-23T11:52:57.996Z,97.30
2023-05-23T11:55:26.870Z,97.50
2023-05-23T11:57:58.118Z,97.50
2023-05-23T12:00:26.669Z,97.20
2023-05-23T12:02:55.243Z,97.30
2023-05-23T12:05:25.064Z,97.20
2023-05-23T12:07:53.715Z,96.90
2023-05-23T12:10:22.801Z,96.90
2023-05-23T12:12:53.299Z,97.00
2023-05-23T12:15:27.994Z,96.70
2023-05-23T12:17:57.318Z,97.00
2023-05-23T12:20:27.982Z,96.80
2023-05-23T12:22:58.193Z,96.80
2023-05-23T12:25:26.779Z,97.10
2023-05-23T12:27:56.377Z,97.10
2023-05-23T12:30:24.854Z,96.90
2023-05-23T12:32:53.815Z,96.90
2023-05-23T12:35:22.316Z,96.80
2023-05-23T12:37:54.860Z,97.30
2023-05-23T12:40:23.791Z,96.90
2023-05-23T12:42:53.656Z,96.90
2023-05-23T12:45:25.282Z,96.90
2023-05-23T12:47:54.287Z,97.00
2023-05-23T12:50:23.225Z,96.80
2023-05-23T12:52:53.491Z,96.60
2023-05-23T12:55:22.290Z,96.50
2023-05-23T12:57:51.009Z,96.70
2023-05-23T13:00:21.003Z,96.80
2023-05-23T13:02:50.532Z,96.80
2023-05-23T13:05:19.658Z,96.90
2023-05-23T13:07:48.224Z,97.00
2023-05-23T13:10:19.293Z,97.00
2023-05-23T13:12:47.845Z,96.90
2023-05-23T13:15:17.315Z,96.90
2023-05-23T13:17:50.164Z,96.60
2023-05-23T13:20:19.048Z,96.70
2023-05-23T13:22:47.464Z,96.60
2023-05-23T13:25:17.478Z,96.80
2023-05-23T13:27:48.207Z,96.90
2023-05-23T13:30:17.641Z,97.00
2023-05-23T13:32:46.109Z,97.50
2023-05-23T13:35:14.699Z,96.90
2023-05-23T13:37:43.201Z,96.80
2023-05-23T13:40:20.132Z,96.90
2023-05-23T13:42:51.073Z,96.90
2023-05-23T13:45:20.278Z,96.70
2023-05-23T13:47:48.974Z,96.70
2023-05-23T13:50:17.806Z,96.50
2023-05-23T13:52:48.416Z,96.70
2023-05-23T13:55:19.787Z,96.80
2023-05-23T13:57:48.343Z,96.70
2023-05-23T14:00:17.571Z,96.60
2023-05-23T14:02:46.143Z,96.70
2023-05-23T14:05:15.726Z,96.60
2023-05-23T14:07:47.401Z,96.50
2023-05-23T14:10:17.543Z,96.20
2023-05-23T14:12:47.818Z,96.30
2023-05-23T14:15:17.773Z,96.20
2023-05-23T14:17:46.411Z,96.20
2023-05-23T14:20:15.329Z,96.20
2023-05-23T14:22:43.867Z,96.10
2023-05-23T14:25:12.365Z,96.10
2023-05-23T14:27:41.485Z,96.00
2023-05-23T14:30:12.879Z,96.20
2023-05-23T14:32:41.656Z,95.90
2023-05-23T14:35:12.879Z,95.90
2023-05-23T14:37:41.431Z,95.70
2023-05-23T14:40:11.335Z,95.80
2023-05-23T14:42:39.812Z,95.80
2023-05-23T14:45:10.741Z,95.60
2023-05-23T14:47:39.406Z,95.70
2023-05-23T14:50:09.786Z,95.60
2023-05-23T14:52:38.312Z,95.70
2023-05-23T14:55:08.526Z,95.60
2023-05-23T14:57:37.205Z,95.50
2023-05-23T15:00:08.159Z,95.40
2023-05-23T15:02:38.439Z,95.50
2023-05-23T15:05:08.824Z,95.30
2023-05-23T15:07:38.676Z,95.70
2023-05-23T15:10:09.511Z,95.50
2023-05-23T15:12:38.191Z,95.70
2023-05-23T15:15:08.290Z,95.60
2023-05-23T15:17:38.740Z,95.50
2023-05-23T15:20:10.329Z,95.50
2023-05-23T15:22:40.206Z,95.60
2023-05-23T15:25:10.367Z,95.90
2023-05-23T15:27:39.073Z,95.60
2023-05-23T15:30:09.610Z,95.60
2023-05-23T15:32:39.621Z,95.60
2023-05-23T15:35:09.013Z,95.50
2023-05-23T15:37:37.563Z,95.70
2023-05-23T15:40:07.326Z,95.40
2023-05-23T15:42:36.449Z,95.40
2023-05-23T15:45:05.790Z,95.40
2023-05-23T15:47:34.525Z,95.40
2023-05-23T15:50:04.531Z,95.20
2023-05-23T15:52:33.083Z,95.30
2023-05-23T15:55:05.593Z,95.40
2023-05-23T15:57:35.142Z,95.50
2023-05-23T16:00:04.469Z,95.30
2023-05-23T16:02:40.406Z,95.40
2023-05-23T16:05:11.303Z,95.40
2023-05-23T16:07:40.203Z,95.50
2023-05-23T16:10:09.893Z,95.40
2023-05-23T16:12:39.896Z,95.50
2023-05-23T16:15:10.211Z,95.40
2023-05-23T16:17:38.785Z,95.60
2023-05-23T16:20:10.271Z,95.40
2023-05-23T16:22:38.839Z,95.50
2023-05-23T16:25:09.454Z,95.30
2023-05-23T16:27:38.155Z,95.40
2023-05-23T16:30:08.592Z,95.50
2023-05-23T16:32:37.208Z,95.50
2023-05-23T16:35:06.378Z,95.50
2023-05-23T16:37:36.902Z,95.60
2023-05-23T16:40:06.824Z,95.50
2023-05-23T16:42:35.714Z,95.60
2023-05-23T16:45:05.078Z,95.60
2023-05-23T16:47:34.044Z,95.50
2023-05-23T16:50:02.869Z,95.50
2023-05-23T16:52:31.455Z,95.50
2023-05-23T16:55:01.615Z,95.60
2023-05-23T16:57:30.403Z,95.60
2023-05-23T16:59:59.178Z,95.60
2023-05-23T17:02:27.845Z,95.60
2023-05-23T17:04:57.123Z,95.70
2023-05-23T17:07:25.688Z,95.70
2023-05-23T17:09:54.265Z,95.60
2023-05-23T17:12:24.244Z,95.50
2023-05-23T17:14:52.696Z,95.50
2023-05-23T17:17:21.154Z,95.60
2023-05-23T17:19:49.649Z,95.50
2023-05-23T17:22:18.151Z,95.50
2023-05-23T17:24:46.648Z,95.60
2023-05-23T17:27:15.240Z,95.50
2023-05-23T17:29:45.042Z,95.50
2023-05-23T17:32:13.556Z,95.70
2023-05-23T17:34:42.414Z,95.60
2023-05-23T17:37:11.800Z,95.50
2023-05-23T17:39:40.387Z,95.60
2023-05-23T17:42:09.038Z,95.50
2023-05-23T17:44:37.426Z,95.50
2023-05-23T17:47:07.945Z,95.40
2023-05-23T17:49:38.795Z,95.30
2023-05-23T17:52:09.712Z,95.20
2023-05-23T17:54:38.738Z,95.20
2023-05-23T17:57:07.696Z,95.10
2023-05-23T17:59:36.417Z,95.40
2023-05-23T18:02:06.976Z,95.30
2023-05-23T18:04:35.726Z,95.50
2023-05-23T18:07:05.920Z,95.30
2023-05-23T18:09:34.405Z,95.30
2023-05-23T18:12:04.137Z,95.30
2023-05-23T18:14:32.728Z,95.20
2023-05-23T18:17:01.287Z,95.30
2023-05-23T18:19:31.285Z,94.90
2023-05-23T18:21:59.858Z,94.80
2023-05-23T18:24:28.273Z,95.00
2023-05-23T18:26:58.145Z,94.90
2023-05-23T18:29:26.911Z,95.00
2023-05-23T18:31:55.977Z,94.90
2023-05-23T18:34:25.116Z,94.80
2023-05-23T18:36:56.450Z,95.00
2023-05-23T18:39:24.981Z,94.90
2023-05-23T18:41:53.463Z,94.80
2023-05-23T18:44:52.877Z,95.10
2023-05-23T18:47:21.315Z,95.10
2023-05-23T18:49:50.280Z,94.60
2023-05-23T18:52:20.123Z,94.50
2023-05-23T18:54:53.603Z,93.80
2023-05-23T18:57:22.656Z,94.60
2023-05-23T18:59:51.560Z,94.20
2023-05-23T19:02:20.088Z,94.70
2023-05-23T19:04:48.579Z,94.60
2023-05-23T19:07:17.187Z,94.30
2023-05-23T19:09:47.576Z,94.20
2023-05-23T19:12:16.266Z,94.20
2023-05-23T19:14:44.682Z,94.40
2023-05-23T19:17:13.077Z,94.20
2023-05-23T19:19:41.722Z,94.40
2023-05-23T19:22:10.846Z,93.90
2023-05-23T19:24:39.492Z,94.00
2023-05-23T19:27:09.533Z,94.40
2023-05-23T19:29:37.979Z,94.00
2023-05-23T19:32:06.877Z,94.10
2023-05-23T19:34:35.475Z,94.30
2023-05-23T19:37:03.920Z,94.20
2023-05-23T19:39:32.368Z,93.90
2023-05-23T19:42:01.024Z,94.10
2023-05-23T19:44:30.861Z,93.80
2023-05-23T19:46:59.474Z,93.40
2023-05-23T19:49:27.920Z,93.80
2023-05-23T19:51:56.340Z,93.50
2023-05-23T19:54:24.782Z,94.00
2023-05-23T19:56:53.391Z,94.00
2023-05-23T19:59:21.890Z,93.40
2023-05-23T20:01:51.817Z,94.10
2023-05-23T20:04:23.770Z,93.80
2023-05-23T20:06:52.300Z,93.70
2023-05-23T20:09:20.730Z,93.80
2023-05-23T20:11:49.161Z,93.80
2023-05-23T20:14:17.592Z,94.30
2023-05-23T20:16:46.130Z,93.80
2023-05-23T20:19:16.121Z,93.70
2023-05-23T20:21:44.645Z,94.30
2023-05-23T20:24:14.929Z,93.60
2023-05-23T20:26:43.387Z,94.10
2023-05-23T20:29:11.796Z,93.60
2023-05-23T20:31:40.203Z,93.80
2023-05-23T20:34:08.626Z,93.50
2023-05-23T20:36:39.170Z,93.50
2023-05-23T20:39:07.893Z,94.00
2023-05-23T20:41:36.350Z,93.90
2023-05-23T20:44:04.946Z,93.90
2023-05-23T20:46:33.663Z,94.10
2023-05-23T20:49:02.154Z,93.60
2023-05-23T20:51:30.850Z,93.50
2023-05-23T20:54:00.769Z,93.90
2023-05-23T20:56:29.305Z,93.60
2023-05-23T20:59:00.341Z,93.80
2023-05-23T21:01:29.456Z,93.50
2023-05-23T21:03:57.961Z,94.10
2023-05-23T21:06:26.520Z,93.70
2023-05-23T21:08:55.078Z,93.90
2023-05-23T21:11:24.991Z,93.80
2023-05-23T21:13:53.410Z,94.10
2023-05-23T21:16:21.894Z,94.20
2023-05-23T21:18:50.375Z,93.30
2023-05-23T21:21:18.763Z,93.90
2023-05-23T21:23:47.165Z,93.40
2023-05-23T21:26:15.569Z,93.70
2023-05-23T21:28:45.587Z,93.90
2023-05-23T21:31:14.421Z,93.20
2023-05-23T21:33:42.850Z,93.80
2023-05-23T21:36:11.275Z,94.00
2023-05-23T21:38:40.599Z,94.00
2023-05-23T21:41:09.097Z,94.20
2023-05-23T21:43:37.524Z,94.40
2023-05-23T21:46:07.384Z,94.40
2023-05-23T21:48:35.889Z,94.20
2023-05-23T21:51:04.319Z,94.20
2023-05-23T21:53:32.864Z,94.40
2023-05-23T21:56:01.336Z,94.50
2023-05-23T21:58:29.743Z,94.60
2023-05-23T22:00:58.181Z,94.80
2023-05-23T22:03:28.114Z,94.50
2023-05-23T22:05:56.575Z,94.30
2023-05-23T22:08:24.983Z,94.30
2023-05-23T22:10:53.458Z,94.50
2023-05-23T22:13:21.818Z,94.40
2023-05-23T22:15:50.597Z,94.40
2023-05-23T22:18:19.075Z,94.50
2023-05-23T22:20:49.450Z,94.50
2023-05-23T22:23:17.892Z,94.10
2023-05-23T22:25:46.702Z,94.50
2023-05-23T22:28:15.199Z,94.80
2023-05-23T22:30:43.712Z,94.60
2023-05-23T22:33:13.227Z,94.70
2023-05-23T22:35:42.114Z,94.70
2023-05-23T22:38:11.991Z,94.90
2023-05-23T22:40:40.737Z,94.90
2023-05-23T22:43:09.316Z,94.60
2023-05-23T22:45:42.564Z,94.70
2023-05-23T22:48:11.560Z,94.60
2023-05-23T22:50:41.513Z,94.70
2023-05-23T22:53:11.653Z,94.90
2023-05-23T22:55:40.209Z,94.80
2023-05-23T22:58:09.035Z,94.80
2023-05-23T23:00:37.675Z,94.70
2023-05-23T23:03:07.533Z,94.50
2023-05-23T23:05:36.126Z,95.00
2023-05-23T23:08:04.621Z,94.80
2023-05-23T23:10:34.395Z,94.90
2023-05-23T23:13:02.912Z,94.90
2023-05-23T23:15:33.872Z,94.80
2023-05-23T23:18:02.591Z,94.90
2023-05-23T23:20:31.147Z,94.50
2023-05-23T23:22:59.640Z,94.90
2023-05-23T23:25:28.143Z,95.00
2023-05-23T23:27:58.061Z,95.00
2023-05-23T23:30:26.565Z,94.80
2023-05-23T23:32:55.041Z,94.70
2023-05-23T23:35:23.662Z,94.80
2023-05-23T23:37:52.108Z,94.90
2023-05-23T23:40:20.487Z,94.90
2023-05-23T23:42:48.917Z,95.00
2023-05-23T23:45:18.770Z,94.80
2023-05-23T23:47:47.344Z,95.20
2023-05-23T23:50:15.885Z,95.00
2023-05-23T23:52:47.296Z,95.00
2023-05-23T23:55:15.783Z,94.70
2023-05-23T23:57:44.212Z,94.80
